Time;durP1;ratioP1;P1;durP2;ratioP2;P2;SDS_P1;SDS_P2;PMS_P1;PMS_P2;Temp;Humidity;BMP_temperature;BMP_pressure;BME280_temperature;BME280_humidity;BME280_pressure;Samples;Min_cycle;Max_cycle;Signal;HPM_P1;HPM_P2
2023/04/05 00:00:19;;;;;;;11.77;6.88;;;;;;;1.66;100.00;-18072.31;4965595;28;20124;-82
2023/04/05 00:02:44;;;;;;;11.60;7.03;;;;;;;1.64;100.00;-18071.63;4974119;28;20070;-82
2023/04/05 00:05:10;;;;;;;11.38;7.50;;;;;;;1.62;100.00;-18071.22;4972565;28;20129;-82
2023/04/05 00:07:37;;;;;;;13.18;7.18;;;;;;;1.65;100.00;-18071.91;4973067;28;20049;-82
2023/04/05 00:10:03;;;;;;;9.73;6.53;;;;;;;1.68;100.00;-18072.88;4961265;28;20042;-82
2023/04/05 00:12:28;;;;;;;8.73;6.70;;;;;;;1.75;100.00;-18074.66;4973244;28;20042;-82
2023/04/05 00:14:54;;;;;;;10.35;7.20;;;;;;;1.72;100.00;-18073.97;4966600;28;20039;-82
2023/04/05 00:17:19;;;;;;;9.10;6.82;;;;;;;1.60;100.00;-18070.66;4963905;28;20407;-82
2023/04/05 00:19:50;;;;;;;8.85;6.50;;;;;;;1.54;100.00;-18069.00;4971635;28;20043;-82
2023/04/05 00:22:19;;;;;;;8.35;6.80;;;;;;;1.48;100.00;-18067.47;4974302;28;20067;-82
2023/04/05 00:24:44;;;;;;;10.25;7.13;;;;;;;1.43;100.00;-18066.09;4974486;28;20046;-82
2023/04/05 00:27:09;;;;;;;10.25;7.03;;;;;;;1.34;100.00;-18063.72;4973300;28;20069;-82
2023/04/05 00:29:35;;;;;;;10.55;6.82;;;;;;;1.34;100.00;-18063.72;4972882;28;20045;-82
2023/04/05 00:32:00;;;;;;;11.98;7.68;;;;;;;1.31;100.00;-18062.91;4971808;28;20106;-82
2023/04/05 00:34:26;;;;;;;12.55;7.30;;;;;;;1.38;100.00;-18064.69;4971015;28;20102;-82
2023/04/05 00:36:51;;;;;;;9.23;6.88;;;;;;;1.37;100.00;-18064.28;4962293;28;20458;-82
2023/04/05 00:39:17;;;;;;;10.50;7.38;;;;;;;1.30;100.00;-18062.63;4972385;28;20087;-82
2023/04/05 00:41:43;;;;;;;11.50;6.85;;;;;;;1.31;100.00;-18062.75;4988345;28;20566;-81
2023/04/05 00:44:08;;;;;;;11.60;7.25;;;;;;;1.18;100.00;-18059.16;4972847;28;20046;-81
2023/04/05 00:46:36;;;;;;;9.82;7.10;;;;;;;1.14;100.00;-18058.19;4974993;28;20039;-81
2023/04/05 00:49:03;;;;;;;9.43;6.68;;;;;;;1.03;100.00;-18055.28;4975332;28;20098;-81
2023/04/05 00:51:32;;;;;;;12.75;7.63;;;;;;;1.00;100.00;-18054.47;4976670;28;20038;-81
2023/04/05 00:53:59;;;;;;;13.55;7.30;;;;;;;1.00;100.00;-18054.47;4973962;28;20042;-81
2023/04/05 00:56:24;;;;;;;13.32;7.85;;;;;;;0.98;100.00;-18053.91;4959434;28;20039;-81
2023/04/05 00:58:52;;;;;;;9.68;7.20;;;;;;;0.92;100.00;-18052.09;4955707;28;20058;-81
2023/04/05 01:01:22;;;;;;;10.70;7.65;;;;;;;0.90;100.00;-18051.69;4952750;28;20407;-80
2023/04/05 01:04:07;;;;;;;11.40;7.60;;;;;;;0.85;100.00;-18050.44;4951778;28;20054;-80
2023/04/05 01:06:52;;;;;;;12.18;7.57;;;;;;;0.81;100.00;-18049.19;4969238;28;20051;-80
2023/04/05 01:09:25;;;;;;;12.45;8.40;;;;;;;0.74;100.00;-18047.25;4953636;28;20050;-80
2023/04/05 01:11:54;;;;;;;11.57;8.18;;;;;;;0.82;100.00;-18049.47;4953352;28;20101;-79
2023/04/05 01:14:20;;;;;;;11.80;7.80;;;;;;;0.70;100.00;-18046.16;4954291;28;20582;-80
2023/04/05 01:16:48;;;;;;;11.02;7.93;;;;;;;0.68;100.00;-18045.88;4952213;28;20059;-79
2023/04/05 01:19:14;;;;;;;13.80;7.70;;;;;;;0.73;100.00;-18046.97;4950608;28;20043;-80
2023/04/05 01:21:58;;;;;;;11.60;8.10;;;;;;;0.68;100.00;-18045.88;4951204;28;20039;-79
2023/04/05 01:24:51;;;;;;;10.73;7.63;;;;;;;0.63;100.00;-18044.34;4952107;28;20042;-80
2023/04/05 01:27:26;;;;;;;12.23;8.63;;;;;;;0.68;100.00;-18045.88;4953170;28;20463;-79
2023/04/05 01:30:02;;;;;;;12.40;8.68;;;;;;;0.62;100.00;-18044.06;4954254;28;20045;-80
2023/04/05 01:32:34;;;;;;;11.27;7.50;;;;;;;0.60;100.00;-18043.66;4964457;28;20446;-80
2023/04/05 01:35:08;;;;;;;10.73;8.07;;;;;;;0.58;100.00;-18042.97;4956645;28;20406;-80
2023/04/05 01:37:35;;;;;;;9.23;7.28;;;;;;;0.61;100.00;-18043.94;4958626;28;20075;-80
2023/04/05 01:40:03;;;;;;;13.65;8.23;;;;;;;0.47;100.00;-18040.06;4949350;28;20677;-79
2023/04/05 01:42:28;;;;;;;13.15;7.35;;;;;;;0.47;100.00;-18039.91;4950603;28;20066;-79
2023/04/05 01:44:56;;;;;;;11.35;7.22;;;;;;;0.40;100.00;-18038.13;4955733;28;20209;-79
2023/04/05 01:47:21;;;;;;;11.32;8.23;;;;;;;0.36;100.00;-18037.16;4950632;28;20055;-78
2023/04/05 01:49:46;;;;;;;11.90;8.73;;;;;;;0.25;100.00;-18033.97;4953251;28;20117;-79
2023/04/05 01:52:12;;;;;;;13.85;9.13;;;;;;;0.17;100.00;-18031.88;4951491;28;20050;-79
2023/04/05 01:54:37;;;;;;;11.55;8.23;;;;;;;0.21;100.00;-18033.00;4950688;28;20122;-79
2023/04/05 01:57:04;;;;;;;11.48;8.00;;;;;;;0.26;100.00;-18034.22;4950032;28;20043;-79
2023/04/05 01:59:30;;;;;;;12.95;8.25;;;;;;;0.22;100.00;-18033.28;4950087;28;20039;-78
2023/04/05 02:01:55;;;;;;;11.85;7.78;;;;;;;0.19;100.00;-18032.44;4950769;28;20046;-78
2023/04/05 02:04:20;;;;;;;12.48;8.57;;;;;;;0.16;100.00;-18031.75;4955792;28;20050;-80
2023/04/05 02:06:46;;;;;;;13.13;8.40;;;;;;;0.18;100.00;-18032.16;4963454;28;20583;-78
2023/04/05 02:09:11;;;;;;;11.35;7.82;;;;;;;0.05;100.00;-18028.69;4951064;28;20470;-79
2023/04/05 02:11:36;;;;;;;11.50;8.85;;;;;;;0.12;100.00;-18030.50;4949854;28;20110;-79
2023/04/05 02:14:02;;;;;;;13.85;9.18;;;;;;;0.21;100.00;-18033.00;4951160;28;20128;-77
2023/04/05 02:16:31;;;;;;;14.32;9.00;;;;;;;0.13;100.00;-18030.78;4950926;28;20050;-78
2023/04/05 02:18:58;;;;;;;12.63;8.77;;;;;;;-0.01;100.00;-18027.16;4951617;28;20043;-79
2023/04/05 02:21:24;;;;;;;13.43;8.75;;;;;;;-0.02;100.00;-18026.75;4952300;28;20059;-77
2023/04/05 02:23:50;;;;;;;11.90;8.35;;;;;;;0.01;100.00;-18027.59;4951878;28;20133;-78
2023/04/05 02:26:16;;;;;;;11.75;8.52;;;;;;;-0.07;100.00;-18025.38;4954714;28;20480;-78
2023/04/05 02:28:41;;;;;;;13.80;8.98;;;;;;;-0.09;100.00;-18024.94;4953723;28;20130;-77
2023/04/05 02:31:10;;;;;;;13.57;8.57;;;;;;;-0.08;100.00;-18025.09;4950198;28;20451;-77
2023/04/05 02:33:36;;;;;;;13.27;8.90;;;;;;;-0.10;100.00;-18024.53;4953900;28;20043;-77
2023/04/05 02:36:06;;;;;;;12.68;9.05;;;;;;;-0.03;100.00;-18026.63;4954130;28;20058;-79
2023/04/05 02:38:32;;;;;;;11.02;8.10;;;;;;;0.04;100.00;-18028.28;4959201;28;20051;-78
2023/04/05 02:40:58;;;;;;;12.98;8.52;;;;;;;0.03;100.00;-18028.16;4950469;28;20758;-78
2023/04/05 02:43:23;;;;;;;13.23;8.38;;;;;;;0.05;100.00;-18028.69;4954847;28;20403;-78
2023/04/05 02:45:49;;;;;;;12.13;8.80;;;;;;;0.08;100.00;-18029.38;4967849;28;20040;-77
2023/04/05 02:48:15;;;;;;;12.40;8.75;;;;;;;0.03;100.00;-18028.16;4954246;28;20135;-78
2023/04/05 02:50:40;;;;;;;13.02;9.00;;;;;;;-0.10;100.00;-18024.69;4953784;28;20122;-78
2023/04/05 02:53:05;;;;;;;12.00;9.18;;;;;;;-0.18;100.00;-18022.47;4950297;28;20079;-77
2023/04/05 02:55:32;;;;;;;12.45;8.57;;;;;;;-0.20;100.00;-18021.75;4954834;28;20621;-78
2023/04/05 02:58:01;;;;;;;15.02;9.23;;;;;;;-0.24;100.00;-18020.94;4957030;28;20121;-78
2023/04/05 03:00:27;;;;;;;12.77;9.45;;;;;;;-0.21;100.00;-18021.50;4957357;28;20081;-78
2023/04/05 03:02:53;;;;;;;13.60;8.77;;;;;;;-0.20;100.00;-18021.91;4962725;28;20129;-79
2023/04/05 03:05:21;;;;;;;12.27;9.07;;;;;;;-0.35;100.00;-18017.88;4958474;28;20059;-78
2023/04/05 03:07:49;;;;;;;12.18;9.05;;;;;;;-0.19;100.00;-18022.19;4963135;28;20043;-77
2023/04/05 03:10:17;;;;;;;13.23;8.07;;;;;;;-0.21;100.00;-18021.63;4960132;28;20109;-77
2023/04/05 03:12:44;;;;;;;14.47;8.20;;;;;;;-0.25;100.00;-18020.66;4958763;28;20047;-78
2023/04/05 03:15:09;;;;;;;12.85;9.38;;;;;;;-0.31;100.00;-18019.00;4950434;28;20430;-78
2023/04/05 03:17:36;;;;;;;15.15;9.50;;;;;;;-0.33;100.00;-18018.31;4954993;28;20055;-78
2023/04/05 03:20:05;;;;;;;15.45;11.05;;;;;;;-0.31;100.00;-18019.00;4951417;28;20043;-77
2023/04/05 03:22:30;;;;;;;15.32;10.75;;;;;;;-0.37;100.00;-18017.19;4955246;28;20046;-77
2023/04/05 03:24:56;;;;;;;17.15;11.20;;;;;;;-0.40;100.00;-18016.38;4952517;28;20046;-78
2023/04/05 03:27:21;;;;;;;14.55;10.80;;;;;;;-0.45;100.00;-18015.13;4951156;28;20047;-78
2023/04/05 03:29:47;;;;;;;15.95;10.30;;;;;;;-0.53;100.00;-18013.03;4952946;28;20746;-78
2023/04/05 03:32:13;;;;;;;15.85;10.07;;;;;;;-0.61;100.00;-18010.81;4952369;28;20461;-78
2023/04/05 03:34:38;;;;;;;14.90;10.18;;;;;;;-0.52;100.00;-18013.31;4952437;28;20067;-78
2023/04/05 03:37:03;;;;;;;15.75;9.68;;;;;;;-0.62;100.00;-18010.53;4943691;28;20047;-78
2023/04/05 03:39:29;;;;;;;12.35;9.27;;;;;;;-0.63;100.00;-18010.25;4956739;28;20049;-78
2023/04/05 03:41:55;;;;;;;14.27;10.10;;;;;;;-0.58;100.00;-18011.50;4962863;28;20054;-78
2023/04/05 03:44:20;;;;;;;14.38;8.90;;;;;;;-0.60;100.00;-18010.97;4956953;28;20121;-78
2023/04/05 03:46:46;;;;;;;13.75;9.73;;;;;;;-0.65;100.00;-18009.56;4952457;28;20039;-78
2023/04/05 03:49:11;;;;;;;17.55;11.15;;;;;;;-0.70;100.00;-18008.31;4951258;28;20495;-78
2023/04/05 03:51:36;;;;;;;15.38;9.90;;;;;;;-0.80;100.00;-18005.69;4956006;28;20082;-80
2023/04/05 03:54:02;;;;;;;14.02;9.70;;;;;;;-0.85;100.00;-18004.16;4953586;28;20059;-80
2023/04/05 03:56:27;;;;;;;13.40;9.70;;;;;;;-0.80;100.00;-18005.69;4952545;28;20479;-80
2023/04/05 03:58:53;;;;;;;15.20;9.95;;;;;;;-0.82;100.00;-18005.13;4953161;28;20047;-80
2023/04/05 04:01:18;;;;;;;14.50;10.40;;;;;;;-0.83;100.00;-18004.84;4951332;28;20507;-80
2023/04/05 04:03:43;;;;;;;13.85;10.18;;;;;;;-0.75;100.00;-18007.06;4948751;28;20051;-80
2023/04/05 04:06:09;;;;;;;18.27;10.73;;;;;;;-0.83;100.00;-18004.84;4950902;28;20503;-80
2023/04/05 04:08:34;;;;;;;12.35;9.57;;;;;;;-0.92;100.00;-18002.50;4960262;28;20517;-80
2023/04/05 04:11:00;;;;;;;13.60;9.93;;;;;;;-0.93;100.00;-18002.09;4952865;28;20455;-80
2023/04/05 04:13:25;;;;;;;16.80;10.98;;;;;;;-0.89;100.00;-18003.19;4956849;28;20043;-80
2023/04/05 04:15:51;;;;;;;18.13;10.60;;;;;;;-0.89;100.00;-18003.19;4954667;28;20054;-80
2023/04/05 04:18:16;;;;;;;19.33;10.15;;;;;;;-0.92;100.00;-18002.38;4955438;28;20090;-80
2023/04/05 04:20:42;;;;;;;16.55;10.88;;;;;;;-0.96;100.00;-18001.38;4952219;28;20066;-80
2023/04/05 04:23:08;;;;;;;16.85;11.07;;;;;;;-0.96;100.00;-18001.25;4958664;28;20106;-80
2023/04/05 04:25:35;;;;;;;15.65;10.68;;;;;;;-1.02;100.00;-17999.72;4952714;28;20554;-80
2023/04/05 04:28:01;;;;;;;14.48;10.35;;;;;;;-1.04;100.00;-17999.16;4961711;28;20051;-80
2023/04/05 04:30:27;;;;;;;15.80;10.68;;;;;;;-0.99;100.00;-18000.41;4957523;28;20043;-80
2023/04/05 04:32:53;;;;;;;18.58;10.43;;;;;;;-0.97;100.00;-18000.97;4954274;28;20098;-80
2023/04/05 04:35:29;;;;;;;16.67;10.52;;;;;;;-0.95;100.00;-18001.53;4954779;28;20113;-80
2023/04/05 04:37:58;;;;;;;18.15;11.25;;;;;;;-0.97;100.00;-18000.97;4961537;28;20527;-80
2023/04/05 04:40:28;;;;;;;15.85;11.00;;;;;;;-0.97;100.00;-18001.13;4953869;28;20066;-80
2023/04/05 04:42:57;;;;;;;14.68;10.80;;;;;;;-0.98;100.00;-18000.84;4953693;28;20055;-80
2023/04/05 04:45:23;;;;;;;;;;;;;;;-1.06;100.00;-17998.63;4956085;28;20058;-80
2023/04/05 04:47:48;;;;;;;21.65;12.90;;;;;;;-1.11;100.00;-17997.09;4955034;28;20365;-80
2023/04/05 04:50:15;;;;;;;15.55;11.52;;;;;;;-1.06;100.00;-17998.47;4955352;28;20039;-79
2023/04/05 04:52:41;;;;;;;16.27;11.80;;;;;;;-1.04;100.00;-17999.16;4952778;28;20051;-79
2023/04/05 04:55:13;;;;;;;14.13;11.02;;;;;;;-1.05;100.00;-17998.75;4953518;28;20054;-79
2023/04/05 04:57:40;;;;;;;16.83;11.45;;;;;;;-1.05;100.00;-17998.75;4952523;28;20052;-80
2023/04/05 05:00:14;;;;;;;16.92;11.25;;;;;;;-1.03;100.00;-17999.31;4951515;28;20051;-80
2023/04/05 05:02:42;;;;;;;15.43;11.40;;;;;;;-1.08;100.00;-17998.06;4964570;28;20451;-80
2023/04/05 05:05:08;;;;;;;17.85;12.10;;;;;;;-1.03;100.00;-17999.31;4951223;28;20514;-81
2023/04/05 05:07:34;;;;;;;19.35;13.38;;;;;;;-1.01;100.00;-17999.88;4952780;28;20411;-80
2023/04/05 05:10:00;;;;;;;18.15;12.55;;;;;;;-1.03;100.00;-17999.44;4951515;28;20043;-80
2023/04/05 05:12:25;;;;;;;18.30;11.80;;;;;;;-1.04;100.00;-17999.16;4955734;28;20061;-80
2023/04/05 05:14:51;;;;;;;20.67;12.60;;;;;;;-0.98;100.00;-18000.69;4948786;28;20137;-80
2023/04/05 05:17:17;;;;;;;18.00;12.35;;;;;;;-1.01;100.00;-18000.00;4965385;28;20050;-80
2023/04/05 05:19:42;;;;;;;16.52;12.20;;;;;;;-1.02;100.00;-17999.59;4949914;28;20471;-80
2023/04/05 05:22:07;;;;;;;19.73;13.32;;;;;;;-1.03;100.00;-17999.44;4954651;28;20053;-80
2023/04/05 05:24:33;;;;;;;20.23;12.80;;;;;;;-1.01;100.00;-18000.00;4953813;28;20073;-79
2023/04/05 05:26:58;;;;;;;18.70;13.25;;;;;;;-1.01;100.00;-17999.88;4954701;28;20049;-79
2023/04/05 05:29:23;;;;;;;21.38;13.60;;;;;;;-1.01;100.00;-17999.88;4951460;28;20071;-80
2023/04/05 05:31:49;;;;;;;20.23;13.23;;;;;;;-1.03;100.00;-17999.31;4953249;28;20558;-79
2023/04/05 05:34:16;;;;;;;20.77;13.13;;;;;;;-0.97;100.00;-18000.97;4956116;28;20034;-80
2023/04/05 05:36:41;;;;;;;18.55;13.13;;;;;;;-0.90;100.00;-18002.91;4952487;28;20043;-80
2023/04/05 05:39:06;;;;;;;19.65;12.90;;;;;;;-0.83;100.00;-18004.84;4954194;28;20057;-79
2023/04/05 05:41:32;;;;;;;17.95;13.52;;;;;;;-0.80;100.00;-18005.69;4958110;28;20518;-80
2023/04/05 05:43:58;;;;;;;18.50;13.98;;;;;;;-0.77;100.00;-18006.38;4952806;28;20035;-80
2023/04/05 05:46:23;;;;;;;17.63;13.32;;;;;;;-0.73;100.00;-18007.63;4948190;28;20078;-80
2023/04/05 05:48:48;;;;;;;22.80;13.70;;;;;;;-0.73;100.00;-18007.63;4954868;28;20043;-80
2023/04/05 05:51:14;;;;;;;18.98;12.82;;;;;;;-0.66;100.00;-18009.44;4962831;28;20039;-80
2023/04/05 05:53:40;;;;;;;21.60;13.65;;;;;;;-0.62;100.00;-18010.53;4950259;28;20051;-79
2023/04/05 05:56:06;;;;;;;19.58;13.55;;;;;;;-0.59;100.00;-18011.38;4951860;28;20043;-80
2023/04/05 05:58:31;;;;;;;17.38;13.02;;;;;;;-0.47;100.00;-18014.69;4950989;28;20054;-80
2023/04/05 06:00:58;;;;;;;22.33;13.90;;;;;;;-0.41;100.00;-18016.22;4955704;28;20077;-79
2023/04/05 06:03:28;;;;;;;17.58;13.20;;;;;;;-0.31;100.00;-18018.84;4956383;28;20039;-79
2023/04/05 06:05:55;;;;;;;20.13;13.93;;;;;;;-0.21;100.00;-18021.50;4950785;28;20470;-79
2023/04/05 06:08:20;;;;;;;20.10;13.57;;;;;;;-0.11;100.00;-18024.41;4948434;28;20050;-79
2023/04/05 06:10:45;;;;;;;17.38;12.95;;;;;;;-0.06;100.00;-18025.78;4954888;28;20826;-79
2023/04/05 06:13:11;;;;;;;22.13;13.70;;;;;;;-0.03;100.00;-18026.47;4949995;28;20090;-80
2023/04/05 06:15:36;;;;;;;19.08;13.27;;;;;;;0.13;100.00;-18030.78;4954559;28;20051;-79
2023/04/05 06:18:02;;;;;;;16.60;12.43;;;;;;;0.23;100.00;-18033.53;4952775;28;20055;-79
2023/04/05 06:20:27;;;;;;;17.42;13.52;;;;;;;0.25;100.00;-18033.97;4949942;28;20050;-80
2023/04/05 06:22:52;;;;;;;17.55;11.65;;;;;;;0.37;100.00;-18037.28;4970049;28;20053;-80
2023/04/05 06:25:18;;;;;;;18.85;13.60;;;;;;;0.43;100.00;-18038.94;4951613;28;20066;-80
2023/04/05 06:27:43;;;;;;;15.45;11.73;;;;;;;0.49;100.00;-18040.63;4954379;28;20134;-80
2023/04/05 06:30:09;;;;;;;20.52;12.48;;;;;;;0.61;100.00;-18043.78;4955210;28;20039;-81
2023/04/05 06:32:34;;;;;;;18.85;12.82;;;;;;;0.66;100.00;-18045.31;4950440;28;20102;-80
2023/04/05 06:35:02;;;;;;;17.17;12.38;;;;;;;0.73;100.00;-18046.97;4949356;28;20077;-80
2023/04/05 06:37:28;;;;;;;17.55;12.38;;;;;;;0.85;100.00;-18050.44;4961715;28;20570;-79
2023/04/05 06:39:53;;;;;;;16.30;11.60;;;;;;;1.06;100.00;-18056.13;4955897;28;20047;-80
2023/04/05 06:42:19;;;;;;;16.13;11.80;;;;;;;1.14;100.00;-18058.19;4958630;28;20043;-80
2023/04/05 06:44:44;;;;;;;19.92;12.25;;;;;;;1.23;100.00;-18060.69;4955881;28;20324;-80
2023/04/05 06:47:09;;;;;;;15.70;11.63;;;;;;;1.30;100.00;-18062.50;4954791;28;20036;-80
2023/04/05 06:49:35;;;;;;;16.25;11.55;;;;;;;1.39;100.00;-18064.97;4954037;28;20047;-81
2023/04/05 06:52:01;;;;;;;16.70;11.82;;;;;;;1.46;100.00;-18066.91;4954758;28;20054;-81
2023/04/05 06:54:27;;;;;;;12.90;10.07;;;;;;;1.60;100.00;-18070.50;4958993;28;20255;-81
2023/04/05 06:56:52;;;;;;;13.77;10.65;;;;;;;1.76;100.00;-18074.94;4957518;28;20059;-81
2023/04/05 06:59:18;;;;;;;14.88;10.98;;;;;;;1.88;100.00;-18078.13;4951950;28;20046;-81
2023/04/05 07:01:43;;;;;;;15.98;10.73;;;;;;;1.94;100.00;-18079.94;4955491;28;20537;-81
2023/04/05 07:04:09;;;;;;;14.60;10.00;;;;;;;2.18;100.00;-18086.28;4952865;28;20039;-81
2023/04/05 07:06:37;;;;;;;14.70;9.80;;;;;;;2.28;100.00;-18089.06;4962602;28;20130;-81
2023/04/05 07:09:04;;;;;;;15.93;9.85;;;;;;;2.44;100.00;-18093.47;4958878;28;20043;-81
2023/04/05 07:11:31;;;;;;;12.38;9.23;;;;;;;2.64;100.00;-18098.72;4953583;28;20045;-82
2023/04/05 07:13:57;;;;;;;14.00;9.70;;;;;;;2.76;100.00;-18102.06;4952285;28;20058;-82
2023/04/05 07:16:23;;;;;;;17.98;9.93;;;;;;;2.82;100.00;-18103.72;4956065;28;20050;-83
2023/04/05 07:18:48;;;;;;;16.50;9.48;;;;;;;2.98;100.00;-18108.00;4954877;28;20054;-82
2023/04/05 07:21:15;;;;;;;13.82;8.40;;;;;;;3.05;100.00;-18109.94;4955440;28;20075;-82
2023/04/05 07:23:40;;;;;;;14.57;9.65;;;;;;;3.21;100.00;-18114.22;4955209;28;20047;-83
2023/04/05 07:26:07;;;;;;;13.60;9.23;;;;;;;3.30;100.00;-18116.72;4958301;28;20054;-82
2023/04/05 07:28:34;;;;;;;13.63;9.13;;;;;;;3.45;100.00;-18120.72;4955326;28;20042;-83
2023/04/05 07:31:00;;;;;;;13.40;8.82;;;;;;;3.59;100.00;-18124.44;4958748;28;20506;-83
2023/04/05 07:33:26;;;;;;;12.93;7.78;;;;;;;3.78;100.00;-18129.69;4958189;28;20054;-83
2023/04/05 07:35:53;;;;;;;10.75;7.10;;;;;;;3.94;100.00;-18133.84;4960184;28;20082;-83
2023/04/05 07:38:18;;;;;;;9.18;6.50;;;;;;;4.04;100.00;-18136.75;4962789;28;20295;-83
2023/04/05 07:40:44;;;;;;;13.27;6.78;;;;;;;4.19;100.00;-18140.75;4976195;28;20054;-83
2023/04/05 07:43:09;;;;;;;9.05;6.80;;;;;;;4.35;100.00;-18144.91;4962076;28;20067;-83
2023/04/05 07:45:34;;;;;;;8.80;6.22;;;;;;;4.40;100.00;-18146.28;4954585;28;20134;-83
2023/04/05 07:48:00;;;;;;;10.20;6.35;;;;;;;4.50;100.00;-18149.19;4955165;28;20113;-83
2023/04/05 07:50:26;;;;;;;9.18;6.28;;;;;;;4.67;100.00;-18153.72;4967061;28;20039;-83
2023/04/05 07:52:51;;;;;;;10.50;6.28;;;;;;;4.75;100.00;-18155.81;4963512;28;20102;-83
2023/04/05 07:55:17;;;;;;;9.02;6.47;;;;;;;4.89;100.00;-18159.66;4965109;28;20133;-83
2023/04/05 07:57:42;;;;;;;11.93;6.97;;;;;;;4.95;100.00;-18161.31;4962315;28;20039;-83
2023/04/05 08:00:12;;;;;;;9.98;5.82;;;;;;;5.10;100.00;-18165.19;4960511;28;20039;-83
2023/04/05 08:02:37;;;;;;;7.78;5.10;;;;;;;5.24;100.00;-18168.91;4964761;28;20066;-83
2023/04/05 08:05:04;;;;;;;6.72;4.78;;;;;;;5.29;100.00;-18170.28;4960050;28;20070;-83
2023/04/05 08:07:29;;;;;;;7.93;5.10;;;;;;;5.30;100.00;-18170.56;4964370;28;20051;-83
2023/04/05 08:09:56;;;;;;;10.70;5.72;;;;;;;5.53;100.00;-18176.78;4964616;28;20051;-84
2023/04/05 08:12:22;;;;;;;9.18;4.88;;;;;;;5.60;100.00;-18178.84;4957028;28;20118;-83
2023/04/05 08:14:48;;;;;;;9.48;5.43;;;;;;;5.72;100.00;-18182.03;4960569;28;20047;-83
2023/04/05 08:17:14;;;;;;;7.90;5.03;;;;;;;5.79;100.00;-18183.97;4956814;28;20039;-83
2023/04/05 08:19:39;;;;;;;7.70;4.72;;;;;;;5.90;100.00;-18186.84;4954026;28;20051;-83
2023/04/05 08:22:05;;;;;;;7.15;4.80;;;;;;;6.01;96.41;-18189.75;4959434;28;20509;-83
2023/04/05 08:24:30;;;;;;;8.40;5.30;;;;;;;6.01;98.00;-18189.91;4957100;28;20110;-83
2023/04/05 08:26:56;;;;;;;8.13;5.47;;;;;;;6.11;100.00;-18192.50;4961242;28;20031;-83
2023/04/05 08:29:22;;;;;;;9.77;5.43;;;;;;;6.22;100.00;-18195.41;4952311;28;20031;-83
2023/04/05 08:31:47;;;;;;;8.27;5.00;;;;;;;6.34;100.00;-18198.72;4951964;28;20343;-83
2023/04/05 08:34:12;;;;;;;8.30;5.22;;;;;;;6.38;99.51;-18199.81;4953737;28;20571;-84
2023/04/05 08:36:38;;;;;;;10.07;6.18;;;;;;;6.42;96.92;-18200.94;4957652;28;20075;-84
2023/04/05 08:39:03;;;;;;;10.35;6.43;;;;;;;6.46;98.56;-18202.03;4958257;28;20058;-84
2023/04/05 08:41:39;;;;;;;9.43;6.20;;;;;;;6.50;94.81;-18203.13;4956127;28;20049;-84
2023/04/05 08:44:09;;;;;;;8.50;5.82;;;;;;;6.58;84.70;-18205.19;4967760;28;20498;-84
2023/04/05 08:46:34;;;;;;;9.90;5.97;;;;;;;6.80;86.59;-18211.13;4953367;28;20404;-84
2023/04/05 08:49:07;;;;;;;7.88;6.05;;;;;;;6.88;77.69;-18213.19;4949249;28;20110;-84
2023/04/05 08:51:32;;;;;;;10.48;5.18;;;;;;;6.93;91.33;-18214.56;4956392;28;20047;-84
2023/04/05 08:53:59;;;;;;;10.65;5.97;;;;;;;6.92;83.89;-18214.44;4952894;28;20117;-84
2023/04/05 08:56:29;;;;;;;9.77;5.82;;;;;;;7.06;78.37;-18218.03;4952659;28;20038;-84
2023/04/05 08:59:05;;;;;;;10.23;5.15;;;;;;;7.20;90.52;-18222.00;4951662;28;20613;-83
2023/04/05 09:01:32;;;;;;;10.10;5.13;;;;;;;7.38;90.37;-18226.84;4951912;28;20055;-84
2023/04/05 09:04:05;;;;;;;7.75;4.80;;;;;;;7.46;82.96;-18228.91;4951058;28;20090;-83
2023/04/05 09:06:31;;;;;;;7.85;4.75;;;;;;;7.45;79.91;-18228.75;4954129;28;20094;-84
2023/04/05 09:08:57;;;;;;;6.05;3.90;;;;;;;7.46;67.87;-18229.03;4952142;28;20051;-84
2023/04/05 09:11:23;;;;;;;8.10;4.72;;;;;;;7.48;87.27;-18229.47;4960455;28;20039;-83
2023/04/05 09:13:49;;;;;;;7.85;4.53;;;;;;;7.61;81.89;-18232.91;4957336;28;20451;-84
2023/04/05 09:16:15;;;;;;;8.30;5.00;;;;;;;7.58;78.29;-18232.06;4967598;28;20043;-84
2023/04/05 09:18:41;;;;;;;7.85;4.70;;;;;;;7.62;78.49;-18233.31;4950934;28;20056;-84
2023/04/05 09:21:08;;;;;;;8.93;4.35;;;;;;;7.64;64.56;-18233.84;4959401;28;20046;-84
2023/04/05 09:23:34;;;;;;;7.07;3.85;;;;;;;7.69;69.35;-18235.25;4951193;28;20043;-84
2023/04/05 09:26:01;;;;;;;6.20;3.97;;;;;;;7.87;70.96;-18240.06;4964497;28;20089;-84
2023/04/05 09:28:40;;;;;;;5.93;3.05;;;;;;;8.01;70.25;-18243.63;4956611;28;20533;-84
2023/04/05 09:31:05;;;;;;;6.15;3.92;;;;;;;8.10;63.68;-18246.25;4966310;28;20039;-83
2023/04/05 09:33:31;;;;;;;7.47;3.80;;;;;;;8.03;70.68;-18244.31;4951348;28;20656;-84
2023/04/05 09:35:56;;;;;;;5.65;3.78;;;;;;;8.22;66.72;-18249.28;4951736;28;20039;-83
2023/04/05 09:38:41;;;;;;;5.57;3.65;;;;;;;8.25;69.28;-18250.25;4966011;28;20259;-84
2023/04/05 09:41:08;;;;;;;5.35;3.45;;;;;;;8.24;67.45;-18249.84;4969859;28;20047;-83
2023/04/05 09:43:41;;;;;;;5.32;3.60;;;;;;;8.37;66.80;-18253.41;4963314;28;20591;-84
2023/04/05 09:46:27;;;;;;;4.20;2.78;;;;;;;8.47;58.52;-18256.16;4960723;28;20087;-84
2023/04/05 09:48:52;;;;;;;4.72;2.92;;;;;;;8.56;63.36;-18258.50;4950198;28;20729;-84
2023/04/05 09:51:18;;;;;;;6.15;3.47;;;;;;;8.34;53.40;-18252.72;4957909;28;20143;-84
2023/04/05 09:54:00;;;;;;;9.40;3.85;;;;;;;8.39;63.96;-18253.97;4965750;28;20332;-83
2023/04/05 09:56:28;;;;;;;6.30;3.10;;;;;;;8.63;67.13;-18260.31;4962323;28;20109;-83
2023/04/05 09:59:15;;;;;;;5.22;2.83;;;;;;;8.78;65.09;-18264.56;4971071;28;20051;-83
2023/04/05 10:01:44;;;;;;;5.10;3.10;;;;;;;8.79;55.67;-18264.72;4983092;28;20047;-84
2023/04/05 10:04:10;;;;;;;6.80;3.65;;;;;;;8.67;56.76;-18261.53;4952314;28;20074;-84
2023/04/05 10:06:39;;;;;;;5.03;3.20;;;;;;;8.74;57.63;-18263.47;4955012;28;20051;-83
2023/04/05 10:09:06;;;;;;;5.47;3.10;;;;;;;8.78;61.63;-18264.56;4952014;28;20051;-84
2023/04/05 10:11:36;;;;;;;6.70;3.55;;;;;;;8.93;61.76;-18268.41;4952845;28;20059;-84
2023/04/05 10:14:03;;;;;;;6.20;3.38;;;;;;;8.76;56.45;-18263.88;4952452;28;20149;-83
2023/04/05 10:16:33;;;;;;;4.00;2.88;;;;;;;8.79;58.08;-18264.84;4955986;28;20055;-84
2023/04/05 10:18:58;;;;;;;5.05;2.70;;;;;;;8.75;55.04;-18263.59;4954250;28;20508;-83
2023/04/05 10:21:28;;;;;;;6.93;3.05;;;;;;;8.73;63.82;-18263.06;4953440;28;20050;-84
2023/04/05 10:24:04;;;;;;;6.45;3.33;;;;;;;8.78;66.07;-18264.56;4953470;28;20106;-83
2023/04/05 10:26:45;;;;;;;4.72;3.00;;;;;;;8.92;59.79;-18268.28;4960190;28;20043;-83
2023/04/05 10:29:23;;;;;;;5.53;3.50;;;;;;;8.94;61.70;-18268.84;4956210;28;20035;-83
2023/04/05 10:32:12;;;;;;;5.57;3.08;;;;;;;9.05;54.95;-18271.72;4969715;28;20047;-84
2023/04/05 10:34:56;;;;;;;;;;;;;;;8.65;48.36;-18260.84;4952356;28;20058;-83
2023/04/05 10:37:34;;;;;;;6.47;3.20;;;;;;;8.33;58.66;-18252.44;4956501;28;20385;-84
2023/04/05 10:40:03;;;;;;;6.53;3.13;;;;;;;8.51;63.99;-18257.28;4969191;28;20050;-83
2023/04/05 10:42:38;;;;;;;5.20;3.20;;;;;;;8.85;57.88;-18266.22;4960592;28;20158;-83
2023/04/05 10:45:08;;;;;;;5.60;2.95;;;;;;;8.80;57.08;-18264.97;4954903;28;20046;-84
2023/04/05 10:47:41;;;;;;;6.25;3.05;;;;;;;8.85;64.42;-18266.22;4958924;28;20393;-83
2023/04/05 10:50:15;;;;;;;8.25;3.53;;;;;;;9.14;60.71;-18274.19;4952997;28;20438;-83
2023/04/05 10:52:41;;;;;;;5.32;3.45;;;;;;;9.10;55.62;-18273.09;4949446;28;20039;-83
2023/04/05 10:55:09;;;;;;;6.55;3.60;;;;;;;9.03;60.82;-18271.16;4948669;28;20039;-83
2023/04/05 10:57:36;;;;;;;4.68;3.15;;;;;;;9.28;58.76;-18277.91;4948631;28;20101;-83
2023/04/05 11:00:02;;;;;;;5.82;3.40;;;;;;;9.10;55.47;-18272.97;4949614;28;20402;-83
2023/04/05 11:02:29;;;;;;;8.02;3.55;;;;;;;9.12;61.12;-18273.50;4951525;28;20047;-83
2023/04/05 11:04:58;;;;;;;5.72;3.47;;;;;;;8.70;54.09;-18262.38;4968876;28;20406;-84
2023/04/05 11:07:23;;;;;;;5.40;3.30;;;;;;;8.86;61.94;-18266.63;4965232;28;20539;-83
2023/04/05 11:10:02;;;;;;;6.85;3.53;;;;;;;9.41;59.72;-18281.34;4968185;28;20050;-84
2023/04/05 11:12:46;;;;;;;6.25;3.70;;;;;;;9.41;58.90;-18281.50;4970235;28;20397;-82
2023/04/05 11:15:26;;;;;;;6.70;2.92;;;;;;;9.51;62.51;-18283.97;4986668;28;20531;-84
2023/04/05 11:18:10;;;;;;;5.80;3.08;;;;;;;9.80;58.75;-18291.94;4967748;28;20051;-83